Bookmark and Share
Track history (hours):
 

Algosea

Last reported at 2014-Apr-20 20:27 UTC. Time now 2014-Apr-20 21:11 UTC.
Position N 45°33' W 073°31'.

Length 144 m; draft 6.3 m.

Type: Ship (hazmat cat A). MMSI: 316006868.

NotesDate/timePositionNaut miles runAvg speedWind from/ knotsBaromVisibWave heightAir tempDewpointWater temp
2014-Apr-20 20:27N 45°33' W 073°31'0 0.0
2014-Apr-20 19:33N 45°33' W 073°31'0 0.0
2014-Apr-20 18:34N 45°33' W 073°31'0 0.0
2014-Apr-20 17:33N 45°33' W 073°31'0 0.0
2014-Apr-20 16:25N 45°33' W 073°31'0 0.0
2014-Apr-20 15:30N 45°33' W 073°31'0 0.0
2014-Apr-20 14:32N 45°33' W 073°31'0 0.0
2014-Apr-20 13:32N 45°33' W 073°31'0 0.0
2014-Apr-20 12:32N 45°33' W 073°31'0 0.0
2014-Apr-20 11:32N 45°33' W 073°31'0 0.0
2014-Apr-20 10:32N 45°33' W 073°31'0 0.0
2014-Apr-20 09:32N 45°33' W 073°31'0 0.0
2014-Apr-20 08:32N 45°33' W 073°31'0 0.0
2014-Apr-20 07:32N 45°33' W 073°31'0 0.0
2014-Apr-20 06:32N 45°33' W 073°31'0 0.0
2014-Apr-20 05:32N 45°33' W 073°31'0 0.0
2014-Apr-20 04:32N 45°33' W 073°31'0 0.0
2014-Apr-20 03:29N 45°33' W 073°31'0 0.0
2014-Apr-20 02:32N 45°33' W 073°31'4 4.1
2014-Apr-20 01:33N 45°37' W 073°30'9 9.3
2014-Apr-20 00:33N 45°45' W 073°24'1110.2
2014-Apr-19 23:27N 45°54' W 073°13'12 9.2
2014-Apr-19 22:10N 46°04' W 073°04'710.0
2014-Apr-19 21:30N 46°09' W 072°57'1111.1
2014-Apr-19 20:33N 46°15' W 072°45'10 9.8
2014-Apr-19 19:33N 46°20' W 072°33'9 8.7
2014-Apr-19 18:33N 46°25' W 072°22'9 8.6
2014-Apr-19 17:33N 46°31' W 072°13'9 9.5
2014-Apr-19 16:33N 46°35' W 072°01'  
2014-Apr-15 03:34N 46°27' W 072°16'1312.8
2014-Apr-15 02:34N 46°20' W 072°32'1111.0
2014-Apr-15 01:33N 46°14' W 072°46'3812.6
2014-Apr-14 22:34N 45°46' W 073°22'10 9.2
2014-Apr-14 21:32N 45°38' W 073°29'0 0.0
2014-Apr-14 20:32N 45°38' W 073°29'0 0.0
2014-Apr-14 19:32N 45°38' W 073°29'0 0.0
2014-Apr-14 18:32N 45°38' W 073°29'0 0.0
2014-Apr-14 17:32N 45°38' W 073°29'0 0.0
2014-Apr-14 16:32N 45°38' W 073°29'1 0.6
2014-Apr-14 15:34N 45°38' W 073°30'0 0.0
2014-Apr-14 14:34N 45°38' W 073°30'0 0.0
2014-Apr-14 13:34N 45°38' W 073°30'0 0.0
2014-Apr-14 11:34N 45°38' W 073°30'0 0.0
2014-Apr-14 10:34N 45°38' W 073°30'0 0.0
2014-Apr-14 09:34N 45°38' W 073°30'0 0.0
2014-Apr-14 08:34N 45°38' W 073°30'0 0.0
2014-Apr-14 07:34N 45°38' W 073°30'0 0.0
2014-Apr-14 06:34N 45°38' W 073°30'0 0.0
2014-Apr-14 05:34N 45°38' W 073°30'0 0.0
2014-Apr-13 22:34N 45°38' W 073°30'0 0.0
2014-Apr-13 21:33N 45°38' W 073°30'0 0.0
2014-Apr-13 20:33N 45°38' W 073°30'0 0.0
2014-Apr-13 19:34N 45°38' W 073°30'0 0.0
2014-Apr-13 18:33N 45°38' W 073°30'0 0.0
2014-Apr-13 17:34N 45°38' W 073°30'0 0.0
2014-Apr-13 16:33N 45°38' W 073°30'0 0.0
2014-Apr-13 15:33N 45°38' W 073°30'0 0.0
2014-Apr-13 14:34N 45°38' W 073°30'0 0.0
2014-Apr-13 13:33N 45°38' W 073°30'0 0.0
2014-Apr-13 12:34N 45°38' W 073°30'0 0.0
2014-Apr-13 11:33N 45°38' W 073°30'0 0.0
2014-Apr-13 10:33N 45°38' W 073°30'0 0.0
2014-Apr-13 09:34N 45°38' W 073°30'0 0.0
2014-Apr-13 08:33N 45°38' W 073°30'0 0.0
2014-Apr-13 07:33N 45°38' W 073°30'0 0.0
2014-Apr-13 06:34N 45°38' W 073°30'0 0.0
2014-Apr-13 05:34N 45°38' W 073°30'0 0.0
2014-Apr-13 04:33N 45°38' W 073°30'0 0.1
2014-Apr-13 03:33N 45°38' W 073°30'8 7.9
2014-Apr-13 02:33N 45°30' W 073°31'2 1.7
2014-Apr-13 01:34N 45°28' W 073°30'5 4.5
2014-Apr-13 00:33N 45°24' W 073°34'3 2.5
2014-Apr-12 23:33N 45°24' W 073°38'8 7.5
2014-Apr-12 22:34N 45°23' W 073°48'7 6.7
2014-Apr-12 21:34N 45°19' W 073°55'1 1.0
2014-Apr-12 20:33N 45°18' W 073°56'4 4.3
2014-Apr-12 19:34N 45°14' W 073°59'1110.6
2014-Apr-12 18:34N 45°14' W 074°14'1211.7
2014-Apr-12 17:33N 45°07' W 074°28'93 3.2
2014-Apr-11 12:26N 44°12' W 076°13'1010.9
2014-Apr-11 11:34N 44°06' W 076°24'10 9.7
2014-Apr-11 10:34N 43°57' W 076°28'0 0.0
2014-Apr-11 09:33N 43°57' W 076°28'0 0.0
2014-Apr-11 07:31N 43°57' W 076°28'0 0.0
2014-Apr-11 05:34N 43°57' W 076°28'  

Dump ship's entire track history

sailing weather and tide predictions

Algosea — CFN4229 — position and weather